Startpagina
METAR-TAF:

METAR-TAF

Vliegvelden :

Luchthaven Franjo Tuđman Zagreb

Zagreb, Kroatië

breedte: 45-44N, lengte: 016-04E, hoogte: 106 m

Actueel weer

Dit bericht is 21 minuten geleden gemaakt, om 13:00 UTC
Wind 1 kt uit variabele richting
Temperatuur 10°C
Vochtigheid 93%
Druk 1014 hPa
Zicht: 8000 m
Verspreide wolken op 700 ft

METAR: LDZA 221300Z VRB01KT 8000 SCT007 10/09 Q1014 NOSIG

Tijdstip: 14:21 (13:21 UTC)

Verwachting

Dit bericht is 1 uur en het 54 minuten geleden gemaakt, om 11:27 UTC
Verwachting geldig van 22 om 12 UTC tot 23 om 12 UTC
Wind 2 kt uit variabele richting
Zicht: 8000 m
Geheel bewolkt op 500 ft
Wijzigt naar
van 22 om 12 UTC tot 22 om 14 UTC
Verspreide wolken op 1000 ft
Gebroken wolken op 3000 ft
Kans 40%
van 22 om 19 UTC tot 23 om 09 UTC
Zicht: 3000 m
nevel
Kans 30%
van 23 om 04 UTC tot 23 om 09 UTC
Zicht: 0200 m
op 100 ft
mist

TAF: LDZA 221127Z 2212/2312 VRB02KT 8000 OVC005 TX11/2214Z TN05/2305Z BECMG 2212/2214 SCT010 BKN030 PROB40 2219/2309 3000 BR PROB30 2304/2309 0200 FG VV001

Waarnemingen en weersverwachtingen van meer dan 4000 vliegvelden (METAR en TAF).

De beschikbare stations zijn de gele en rode punten op de kaart.

Ga met uw muis naar het station om de naam te zien.

Klik dan om waarnemingen en weersverwachtingen te zien.

kaart wijzigen: klik op de groene knoppen met een zwart kruis om in te zoomen, op de groene knop met een streepje om uit te zoomen of op de groene pijlen voor aangrenzende kaarten.


METAR-TAF: